createdAt,value
2023-04-18T00:02:09.153Z,2.50
2023-04-18T00:04:39.474Z,2.50
2023-04-18T00:07:07.789Z,2.50
2023-04-18T00:09:36.201Z,2.40
2023-04-18T00:12:04.949Z,2.50
2023-04-18T00:14:38.096Z,2.40
2023-04-18T00:17:08.825Z,2.30
2023-04-18T00:19:41.698Z,2.30
2023-04-18T00:22:10.344Z,2.20
2023-04-18T00:24:39.008Z,2.20
2023-04-18T00:27:07.435Z,2.10
2023-04-18T00:29:37.310Z,2.60
2023-04-18T00:32:05.778Z,2.10
2023-04-18T00:34:33.997Z,2.00
2023-04-18T00:37:02.236Z,1.90
2023-04-18T00:39:30.861Z,1.90
2023-04-18T00:41:59.162Z,1.90
2023-04-18T00:44:27.375Z,1.80
2023-04-18T00:46:56.868Z,1.80
2023-04-18T00:49:26.765Z,1.80
2023-04-18T00:51:56.649Z,1.80
2023-04-18T00:54:27.606Z,1.80
2023-04-18T00:56:55.849Z,1.70
2023-04-18T00:59:24.267Z,1.70
2023-04-18T01:01:52.506Z,1.70
2023-04-18T01:04:22.273Z,1.70
2023-04-18T01:06:51.248Z,1.70
2023-04-18T01:09:21.048Z,1.60
2023-04-18T01:11:49.176Z,1.60
2023-04-18T01:14:19.713Z,1.50
2023-04-18T01:16:48.370Z,1.90
2023-04-18T01:19:17.688Z,1.40
2023-04-18T01:21:47.265Z,1.40
2023-04-18T01:24:18.573Z,1.40
2023-04-18T01:26:48.578Z,1.40
2023-04-18T01:29:16.782Z,1.40
2023-04-18T01:31:45.052Z,1.30
2023-04-18T01:34:17.792Z,1.30
2023-04-18T01:36:46.350Z,1.30
2023-04-18T01:39:15.914Z,1.30
2023-04-18T01:41:44.048Z,1.30
2023-04-18T01:44:12.491Z,1.30
2023-04-18T01:46:40.995Z,1.30
2023-04-18T01:49:09.820Z,1.30
2023-04-18T01:51:39.064Z,1.30
2023-04-18T01:54:07.276Z,1.90
2023-04-18T01:56:36.791Z,1.20
2023-04-18T01:59:05.483Z,1.20
2023-04-18T02:01:33.630Z,1.20
2023-04-18T02:04:01.986Z,1.20
2023-04-18T02:06:30.762Z,1.10
2023-04-18T02:09:00.154Z,1.10
2023-04-18T02:11:28.284Z,1.10
2023-04-18T02:13:59.653Z,1.10
2023-04-18T02:16:27.954Z,1.00
2023-04-18T02:18:56.480Z,1.00
2023-04-18T02:21:24.734Z,1.00
2023-04-18T02:23:53.644Z,1.00
2023-04-18T02:26:23.457Z,0.90
2023-04-18T02:28:51.771Z,0.90
2023-04-18T02:31:21.289Z,0.90
2023-04-18T02:33:49.533Z,0.80
2023-04-18T02:36:17.701Z,0.90
2023-04-18T02:38:45.939Z,0.80
2023-04-18T02:41:17.430Z,0.80
2023-04-18T02:43:46.023Z,0.80
2023-04-18T02:46:17.396Z,0.80
2023-04-18T02:48:49.986Z,0.80
2023-04-18T02:51:20.111Z,0.80
2023-04-18T02:53:48.918Z,0.70
2023-04-18T02:56:18.823Z,0.70
2023-04-18T02:59:05.810Z,0.60
2023-04-18T03:01:47.260Z,0.70
2023-04-18T03:04:19.593Z,0.60
2023-04-18T03:06:59.128Z,0.60
2023-04-18T03:09:28.320Z,0.60
2023-04-18T03:12:02.358Z,0.60
2023-04-18T03:14:32.054Z,0.60
2023-04-18T03:17:01.061Z,0.50
2023-04-18T03:19:37.224Z,0.60
2023-04-18T03:22:09.955Z,0.60
2023-04-18T03:24:45.318Z,0.60
2023-04-18T03:27:14.284Z,0.60
2023-04-18T03:29:44.628Z,0.60
2023-04-18T03:32:13.371Z,0.60
2023-04-18T03:34:43.228Z,0.60
2023-04-18T03:37:11.823Z,0.70
2023-04-18T03:39:46.556Z,0.70
2023-04-18T03:42:15.148Z,0.90
2023-04-18T03:44:44.711Z,0.90
2023-04-18T03:47:14.580Z,1.00
2023-04-18T03:49:46.951Z,1.10
2023-04-18T03:52:16.013Z,1.20
2023-04-18T03:54:44.396Z,1.20
2023-04-18T03:57:13.377Z,1.50
2023-04-18T03:59:42.992Z,1.30
2023-04-18T04:02:11.715Z,1.40
2023-04-18T04:04:40.306Z,1.40
2023-04-18T04:07:09.911Z,1.50
2023-04-18T04:09:38.198Z,1.50
2023-04-18T04:12:07.940Z,1.60
2023-04-18T04:14:38.361Z,1.60
2023-04-18T04:17:07.262Z,1.70
2023-04-18T04:19:35.624Z,1.80
2023-04-18T04:22:11.648Z,1.90
2023-04-18T04:24:40.473Z,2.00
2023-04-18T04:27:10.430Z,2.10
2023-04-18T04:29:39.659Z,2.20
2023-04-18T04:32:09.079Z,2.20
2023-04-18T04:34:41.351Z,2.40
2023-04-18T04:37:13.942Z,2.50
2023-04-18T04:39:52.760Z,2.60
2023-04-18T04:42:43.848Z,2.80
2023-04-18T04:45:19.352Z,2.90
2023-04-18T04:47:47.625Z,3.00
2023-04-18T04:50:16.329Z,3.10
2023-04-18T04:52:45.938Z,3.10
2023-04-18T04:55:14.948Z,3.20
2023-04-18T04:57:44.828Z,3.30
2023-04-18T05:00:27.230Z,3.40
2023-04-18T05:02:57.728Z,3.60
2023-04-18T05:05:29.084Z,3.70
2023-04-18T05:07:59.369Z,3.70
2023-04-18T05:10:28.473Z,3.80
2023-04-18T05:12:57.060Z,3.90
2023-04-18T05:15:25.266Z,4.00
2023-04-18T05:17:54.404Z,4.10
2023-04-18T05:20:22.683Z,4.20
2023-04-18T05:22:51.290Z,4.30
2023-04-18T05:25:23.973Z,4.40
2023-04-18T05:27:52.752Z,4.70
2023-04-18T05:30:21.252Z,4.50
2023-04-18T05:32:49.766Z,4.60
2023-04-18T05:35:18.127Z,4.70
2023-04-18T05:37:46.678Z,4.70
2023-04-18T05:40:15.354Z,4.80
2023-04-18T05:42:44.939Z,4.90
2023-04-18T05:45:13.307Z,4.90
2023-04-18T05:47:41.710Z,5.00
2023-04-18T05:50:10.803Z,5.10
2023-04-18T05:52:39.501Z,5.20
2023-04-18T05:55:07.986Z,5.20
2023-04-18T05:57:36.580Z,5.30
2023-04-18T06:00:11.347Z,5.40
2023-04-18T06:02:42.940Z,5.50
2023-04-18T06:05:11.851Z,5.60
2023-04-18T06:07:40.447Z,5.70
2023-04-18T06:10:13.240Z,5.80
2023-04-18T06:12:41.961Z,5.90
2023-04-18T06:15:12.726Z,6.00
2023-04-18T06:17:41.053Z,6.10
2023-04-18T06:20:11.882Z,6.10
2023-04-18T06:22:40.102Z,6.20
2023-04-18T06:25:10.049Z,6.30
2023-04-18T06:27:38.574Z,6.30
2023-04-18T06:30:08.267Z,6.40
2023-04-18T06:32:38.394Z,6.50
2023-04-18T06:35:07.414Z,6.60
2023-04-18T06:37:35.802Z,6.60
2023-04-18T06:40:03.993Z,6.60
2023-04-18T06:42:32.177Z,6.70
2023-04-18T06:45:00.352Z,6.70
2023-04-18T06:47:29.491Z,6.80
2023-04-18T06:49:59.057Z,6.90
2023-04-18T06:52:27.273Z,6.90
2023-04-18T06:54:55.434Z,7.00
2023-04-18T06:57:23.784Z,7.00
2023-04-18T06:59:51.961Z,7.10
2023-04-18T07:02:20.499Z,7.30
2023-04-18T07:04:49.155Z,7.40
2023-04-18T07:07:18.702Z,7.40
2023-04-18T07:09:46.848Z,7.40
2023-04-18T07:12:15.348Z,7.50
2023-04-18T07:14:43.590Z,7.40
2023-04-18T07:17:11.984Z,7.50
2023-04-18T07:19:41.855Z,7.50
2023-04-18T07:22:10.071Z,7.60
2023-04-18T07:24:40.143Z,7.70
2023-04-18T07:27:09.416Z,7.80
2023-04-18T07:29:37.677Z,7.90
2023-04-18T07:32:08.100Z,8.00
2023-04-18T07:34:38.047Z,8.00
2023-04-18T07:37:06.970Z,8.00
2023-04-18T07:39:36.184Z,8.00
2023-04-18T07:42:06.198Z,8.00
2023-04-18T07:44:36.850Z,8.10
2023-04-18T07:47:05.387Z,8.00
2023-04-18T07:49:34.154Z,8.10
2023-04-18T07:52:02.332Z,8.10
2023-04-18T07:54:30.579Z,8.20
2023-04-18T07:56:59.718Z,8.20
2023-04-18T07:59:32.243Z,8.20
2023-04-18T08:02:00.628Z,8.30
2023-04-18T08:04:30.630Z,8.40
2023-04-18T08:06:58.955Z,8.50
2023-04-18T08:09:27.126Z,8.50
2023-04-18T08:11:56.791Z,8.50
2023-04-18T08:14:25.239Z,8.60
2023-04-18T08:16:55.168Z,8.60
2023-04-18T08:19:24.223Z,8.50
2023-04-18T08:21:53.027Z,8.60
2023-04-18T08:24:21.244Z,8.60
2023-04-18T08:26:49.827Z,8.70
2023-04-18T08:29:18.001Z,9.20
2023-04-18T08:31:46.751Z,9.80
2023-04-18T08:34:16.239Z,9.70
2023-04-18T08:36:44.450Z,10.10
2023-04-18T08:39:12.862Z,10.00
2023-04-18T08:41:43.266Z,9.90
2023-04-18T08:44:11.566Z,9.80
2023-04-18T08:46:39.831Z,9.60
2023-04-18T08:49:09.175Z,9.50
2023-04-18T08:51:41.622Z,9.50
2023-04-18T08:54:10.209Z,9.50
2023-04-18T08:56:38.470Z,9.40
2023-04-18T08:59:06.650Z,9.50
2023-04-18T09:01:56.579Z,9.60
2023-04-18T09:04:35.168Z,9.60
2023-04-18T09:07:06.551Z,9.70
2023-04-18T09:09:46.492Z,9.80
2023-04-18T09:12:18.264Z,10.10
2023-04-18T09:14:50.089Z,10.00
2023-04-18T09:17:33.001Z,10.20
2023-04-18T09:20:01.829Z,10.40
2023-04-18T09:22:50.517Z,10.40
2023-04-18T09:25:27.325Z,10.40
2023-04-18T09:28:01.440Z,10.50
2023-04-18T09:30:39.367Z,10.30
2023-04-18T09:33:10.191Z,10.40
2023-04-18T09:35:38.935Z,10.50
2023-04-18T09:38:09.421Z,10.60
2023-04-18T09:40:37.695Z,10.80
2023-04-18T09:43:19.627Z,10.80
2023-04-18T09:45:48.628Z,10.90
2023-04-18T09:48:17.285Z,11.00
2023-04-18T09:50:48.607Z,11.20
2023-04-18T09:53:21.059Z,11.30
2023-04-18T09:55:56.924Z,11.50
2023-04-18T09:58:30.016Z,11.80
2023-04-18T10:00:58.989Z,12.10
2023-04-18T10:03:34.470Z,12.30
2023-04-18T10:06:03.560Z,12.40
2023-04-18T10:08:33.957Z,12.10
2023-04-18T10:11:02.892Z,12.30
2023-04-18T10:13:32.028Z,12.00
2023-04-18T10:16:00.611Z,12.10
2023-04-18T10:18:29.002Z,12.30
2023-04-18T10:21:03.253Z,12.40
2023-04-18T10:23:40.490Z,12.60
2023-04-18T10:26:09.770Z,12.60
2023-04-18T10:28:53.142Z,12.70
2023-04-18T10:31:23.521Z,12.80
2023-04-18T10:36:28.520Z,12.70
2023-04-18T10:39:03.106Z,12.70
2023-04-18T10:41:32.611Z,12.70
2023-04-18T10:44:22.167Z,12.60
2023-04-18T10:47:19.705Z,12.40
2023-04-18T10:50:05.983Z,12.50
2023-04-18T10:52:35.109Z,12.80
2023-04-18T10:55:20.909Z,12.80
2023-04-18T10:57:50.488Z,12.60
2023-04-18T11:00:21.522Z,12.50
2023-04-18T11:02:51.908Z,12.60
2023-04-18T11:05:22.297Z,12.60
2023-04-18T11:07:50.795Z,12.70
2023-04-18T11:10:21.722Z,12.80
2023-04-18T11:12:49.971Z,12.70
2023-04-18T11:15:21.681Z,12.80
2023-04-18T11:17:58.726Z,13.00
2023-04-18T11:20:27.394Z,13.00
2023-04-18T11:22:57.385Z,13.00
2023-04-18T11:25:32.157Z,12.60
2023-04-18T11:28:01.555Z,12.60
2023-04-18T11:30:36.850Z,12.70
2023-04-18T11:33:07.358Z,12.40
2023-04-18T11:35:38.428Z,12.40
2023-04-18T11:38:06.987Z,12.50
2023-04-18T11:40:37.544Z,12.60
2023-04-18T11:43:08.033Z,12.60
2023-04-18T11:45:36.233Z,12.50
2023-04-18T11:48:04.695Z,12.60
2023-04-18T11:50:38.077Z,12.70
2023-04-18T11:53:06.235Z,12.90
2023-04-18T11:55:35.803Z,12.90
2023-04-18T11:58:04.355Z,13.00
2023-04-18T12:00:34.295Z,12.80
2023-04-18T12:03:04.463Z,12.90
2023-04-18T12:05:34.791Z,13.10
2023-04-18T12:08:11.382Z,13.30
2023-04-18T12:10:47.778Z,13.40
2023-04-18T12:13:16.136Z,13.30
2023-04-18T12:15:45.971Z,13.30
2023-04-18T12:18:15.677Z,13.50
2023-04-18T12:20:50.097Z,13.70
2023-04-18T12:23:32.734Z,13.70
2023-04-18T12:26:03.700Z,13.50
2023-04-18T12:28:33.081Z,13.20
2023-04-18T12:31:02.000Z,13.10
2023-04-18T12:33:31.689Z,13.30
2023-04-18T12:36:01.019Z,13.50
2023-04-18T12:38:29.512Z,13.30
2023-04-18T12:40:58.013Z,13.80
2023-04-18T12:43:27.572Z,13.80
2023-04-18T12:45:55.854Z,13.90
2023-04-18T12:48:23.985Z,14.10
2023-04-18T12:50:52.142Z,14.20
2023-04-18T12:53:20.329Z,14.30
2023-04-18T12:55:48.484Z,14.30
2023-04-18T12:58:18.781Z,14.10
2023-04-18T13:00:48.841Z,14.10
2023-04-18T13:03:17.361Z,14.10
2023-04-18T13:05:45.702Z,14.20
2023-04-18T13:08:17.728Z,14.60
2023-04-18T13:10:46.376Z,14.80
2023-04-18T13:13:14.738Z,15.10
2023-04-18T13:15:43.575Z,15.60
2023-04-18T13:18:13.080Z,15.60
2023-04-18T13:20:41.516Z,15.30
2023-04-18T13:23:09.666Z,14.90
2023-04-18T13:25:38.021Z,14.80
2023-04-18T13:28:06.421Z,14.70
2023-04-18T13:30:35.762Z,14.60
2023-04-18T13:33:04.021Z,14.70
2023-04-18T13:35:33.576Z,14.80
2023-04-18T13:38:01.826Z,15.00
2023-04-18T13:40:30.315Z,15.00
2023-04-18T13:42:58.615Z,15.20
2023-04-18T13:45:26.777Z,15.00
2023-04-18T13:47:54.918Z,14.90
2023-04-18T13:50:23.893Z,14.50
2023-04-18T13:52:54.532Z,14.60
2023-04-18T13:55:23.259Z,14.80
2023-04-18T13:57:51.384Z,15.00
2023-04-18T14:00:20.761Z,15.10
2023-04-18T14:02:49.084Z,15.40
2023-04-18T14:05:17.480Z,15.70
2023-04-18T14:07:45.702Z,15.70
2023-04-18T14:10:15.951Z,15.80
2023-04-18T14:12:44.090Z,15.20
2023-04-18T14:15:12.983Z,15.00
2023-04-18T14:17:42.755Z,15.10
2023-04-18T14:20:15.513Z,15.20
2023-04-18T14:22:43.695Z,15.20
2023-04-18T14:25:12.457Z,15.50
2023-04-18T14:27:42.106Z,15.50
2023-04-18T14:30:11.574Z,15.40
2023-04-18T14:32:39.869Z,15.20
2023-04-18T14:35:09.250Z,15.10
2023-04-18T14:37:37.489Z,15.00
2023-04-18T14:40:08.163Z,14.90
2023-04-18T14:42:36.336Z,14.80
2023-04-18T14:45:08.382Z,15.00
2023-04-18T14:47:39.015Z,15.20
2023-04-18T14:50:08.719Z,15.30
2023-04-18T14:52:36.982Z,15.20
2023-04-18T14:55:05.635Z,15.30
2023-04-18T14:57:35.432Z,15.50
2023-04-18T15:00:07.387Z,15.60
2023-04-18T15:02:35.817Z,15.80
2023-04-18T15:05:04.514Z,15.60
2023-04-18T15:07:32.713Z,15.70
2023-04-18T15:10:00.922Z,15.80
2023-04-18T15:12:30.420Z,15.70
2023-04-18T15:15:00.032Z,15.60
2023-04-18T15:17:29.609Z,15.40
2023-04-18T15:19:59.820Z,15.10
2023-04-18T15:22:27.977Z,14.70
2023-04-18T15:24:56.142Z,14.90
2023-04-18T15:27:24.301Z,14.70
2023-04-18T15:29:52.512Z,14.60
2023-04-18T15:32:20.853Z,14.60
2023-04-18T15:34:53.224Z,14.40
2023-04-18T15:37:21.534Z,14.40
2023-04-18T15:39:49.652Z,14.40
2023-04-18T15:42:17.832Z,14.20
2023-04-18T15:44:46.299Z,14.20
2023-04-18T15:47:14.713Z,14.20
2023-04-18T15:49:42.980Z,14.30
2023-04-18T15:52:15.640Z,14.30
2023-04-18T15:54:44.172Z,14.50
2023-04-18T15:57:12.529Z,14.70
2023-04-18T15:59:41.099Z,14.80
2023-04-18T16:02:10.268Z,14.80
2023-04-18T16:04:38.639Z,14.70
2023-04-18T16:07:08.206Z,14.50
2023-04-18T16:09:37.716Z,14.40
2023-04-18T16:12:07.308Z,14.50
2023-04-18T16:14:35.446Z,14.60
2023-04-18T16:17:03.890Z,14.60
2023-04-18T16:19:33.302Z,14.50
2023-04-18T16:22:02.577Z,14.50
2023-04-18T16:24:31.068Z,14.50
2023-04-18T16:27:00.848Z,14.10
2023-04-18T16:29:29.008Z,14.00
2023-04-18T16:31:57.306Z,13.70
2023-04-18T16:34:25.519Z,13.80
2023-04-18T16:36:55.135Z,13.70
2023-04-18T16:39:23.924Z,13.90
2023-04-18T16:41:52.224Z,14.00
2023-04-18T16:44:21.870Z,14.00
2023-04-18T16:46:50.120Z,14.00
2023-04-18T16:49:19.084Z,13.90
2023-04-18T16:51:47.293Z,14.10
2023-04-18T16:54:15.614Z,14.20
2023-04-18T16:56:44.588Z,14.10
2023-04-18T16:59:13.106Z,14.20
2023-04-18T17:01:42.772Z,14.10
2023-04-18T17:04:11.253Z,14.00
2023-04-18T17:06:39.482Z,13.90
2023-04-18T17:09:09.048Z,13.70
2023-04-18T17:11:39.627Z,13.70
2023-04-18T17:14:09.242Z,13.60
2023-04-18T17:16:39.144Z,13.60
2023-04-18T17:19:09.132Z,13.60
2023-04-18T17:21:38.316Z,13.50
2023-04-18T17:24:07.703Z,13.40
2023-04-18T17:26:36.962Z,13.40
2023-04-18T17:29:05.601Z,13.40
2023-04-18T17:31:34.059Z,13.70
2023-04-18T17:34:03.604Z,13.30
2023-04-18T17:36:33.191Z,13.80
2023-04-18T17:39:06.178Z,13.20
2023-04-18T17:41:38.419Z,13.00
2023-04-18T17:44:07.746Z,12.90
2023-04-18T17:46:36.320Z,12.80
2023-04-18T17:49:05.638Z,12.70
2023-04-18T17:51:35.283Z,12.70
2023-04-18T17:54:05.092Z,12.60
2023-04-18T17:56:33.236Z,12.50
2023-04-18T17:59:01.553Z,12.40
2023-04-18T18:01:30.429Z,12.40
2023-04-18T18:04:02.147Z,12.40
2023-04-18T18:06:30.450Z,12.20
2023-04-18T18:08:59.967Z,12.20
2023-04-18T18:11:28.364Z,12.10
2023-04-18T18:13:57.614Z,12.10
2023-04-18T18:16:25.906Z,12.00
2023-04-18T18:18:54.276Z,12.00
2023-04-18T18:21:22.526Z,12.00
2023-04-18T18:23:50.689Z,12.00
2023-04-18T18:26:20.256Z,12.00
2023-04-18T18:28:48.405Z,12.00
2023-04-18T18:31:17.407Z,11.90
2023-04-18T18:33:45.644Z,12.00
2023-04-18T18:36:13.931Z,12.00
2023-04-18T18:38:42.198Z,12.00
2023-04-18T18:41:10.361Z,12.00
2023-04-18T18:43:39.920Z,11.90
2023-04-18T18:46:08.259Z,11.80
2023-04-18T18:48:39.067Z,11.80
2023-04-18T18:51:07.197Z,11.70
2023-04-18T18:53:37.729Z,11.70
2023-04-18T18:56:08.668Z,11.70
2023-04-18T18:58:39.181Z,11.60
2023-04-18T19:01:07.373Z,11.60
2023-04-18T19:03:35.950Z,11.50
2023-04-18T19:06:06.970Z,11.60
2023-04-18T19:08:35.993Z,11.50
2023-04-18T19:11:04.346Z,11.60
2023-04-18T19:13:33.993Z,11.60
2023-04-18T19:16:03.854Z,11.60
2023-04-18T19:18:32.367Z,11.60
2023-04-18T19:21:00.753Z,11.60
2023-04-18T19:23:30.857Z,11.60
2023-04-18T19:25:59.477Z,11.60
2023-04-18T19:28:27.726Z,11.60
2023-04-18T19:30:55.903Z,11.60
2023-04-18T19:33:25.628Z,11.60
2023-04-18T19:35:53.849Z,11.50
2023-04-18T19:38:22.003Z,11.50
2023-04-18T19:40:50.123Z,11.40
2023-04-18T19:43:18.325Z,11.50
2023-04-18T19:45:46.675Z,11.40
2023-04-18T19:48:14.856Z,11.30
2023-04-18T19:51:06.545Z,11.30
2023-04-18T19:53:35.863Z,11.30
2023-04-18T19:56:04.105Z,11.30
2023-04-18T19:58:38.038Z,11.20
2023-04-18T20:01:07.567Z,11.20
2023-04-18T20:03:36.477Z,11.20
2023-04-18T20:06:06.627Z,11.10
2023-04-18T20:08:36.868Z,11.10
2023-04-18T20:11:07.428Z,11.00
2023-04-18T20:13:36.945Z,11.00
2023-04-18T20:16:05.298Z,11.00
2023-04-18T20:18:35.670Z,11.00
2023-04-18T20:21:04.250Z,11.00
2023-04-18T20:23:34.492Z,11.00
2023-04-18T20:26:02.903Z,11.00
2023-04-18T20:28:31.414Z,11.00
2023-04-18T20:30:59.707Z,11.00
2023-04-18T20:33:28.523Z,11.00
2023-04-18T20:35:58.703Z,10.90
2023-04-18T20:38:29.800Z,10.90
2023-04-18T20:41:00.674Z,10.90
2023-04-18T20:43:28.978Z,10.80
2023-04-18T20:45:58.650Z,10.90
2023-04-18T20:48:26.980Z,10.90
2023-04-18T20:50:55.940Z,10.80
2023-04-18T20:53:26.363Z,10.80
2023-04-18T20:55:55.301Z,10.80
2023-04-18T20:58:24.837Z,10.80
2023-04-18T21:00:53.598Z,11.00
2023-04-18T21:03:22.330Z,10.80
2023-04-18T21:05:50.554Z,10.80
2023-04-18T21:08:19.276Z,10.80
2023-04-18T21:10:47.453Z,10.70
2023-04-18T21:13:16.408Z,10.80
2023-04-18T21:15:46.060Z,10.80
2023-04-18T21:18:14.362Z,10.80
2023-04-18T21:20:42.601Z,10.70
2023-04-18T21:23:10.794Z,10.90
2023-04-18T21:25:39.305Z,10.80
2023-04-18T21:28:07.943Z,10.80
2023-04-18T21:30:36.305Z,10.70
2023-04-18T21:33:06.315Z,10.60
2023-04-18T21:35:34.786Z,10.60
2023-04-18T21:38:03.159Z,10.60
2023-04-18T21:40:33.302Z,10.60
2023-04-18T21:43:01.508Z,10.50
2023-04-18T21:45:30.093Z,10.50
2023-04-18T21:47:58.377Z,10.60
2023-04-18T21:50:28.201Z,10.50
2023-04-18T21:52:56.496Z,10.60
2023-04-18T21:55:24.948Z,10.50
2023-04-18T21:57:54.227Z,10.50
2023-04-18T22:00:22.586Z,10.50
2023-04-18T22:02:51.313Z,10.40
2023-04-18T22:05:20.076Z,10.50
2023-04-18T22:07:57.615Z,10.50
2023-04-18T22:10:26.725Z,10.50
2023-04-18T22:12:55.824Z,10.50
2023-04-18T22:15:26.944Z,10.60
2023-04-18T22:17:55.531Z,10.60
2023-04-18T22:20:25.757Z,10.60
2023-04-18T22:22:55.508Z,10.60
2023-04-18T22:25:23.857Z,10.60
2023-04-18T22:27:52.020Z,10.50
2023-04-18T22:30:20.604Z,10.50
2023-04-18T22:32:48.872Z,10.50
2023-04-18T22:35:17.731Z,10.50
2023-04-18T22:37:45.893Z,10.40
2023-04-18T22:40:16.526Z,10.40
2023-04-18T22:42:44.677Z,10.40
2023-04-18T22:45:13.471Z,10.40
2023-04-18T22:47:41.693Z,10.40
2023-04-18T22:50:10.563Z,10.40
2023-04-18T22:52:38.738Z,10.40
2023-04-18T22:55:07.446Z,10.40
2023-04-18T22:57:37.169Z,10.40
2023-04-18T23:00:06.950Z,10.40
2023-04-18T23:02:35.272Z,10.40
2023-04-18T23:05:03.554Z,10.40
2023-04-18T23:07:31.766Z,10.40
2023-04-18T23:10:00.620Z,10.30
2023-04-18T23:12:28.955Z,10.30
2023-04-18T23:14:58.598Z,10.20
2023-04-18T23:17:26.775Z,10.20
2023-04-18T23:19:54.975Z,10.30
2023-04-18T23:22:24.108Z,10.30
2023-04-18T23:24:52.422Z,10.30
2023-04-18T23:27:20.956Z,10.30
2023-04-18T23:29:49.438Z,10.30
2023-04-18T23:32:18.970Z,10.20
2023-04-18T23:34:47.446Z,10.30
2023-04-18T23:37:15.572Z,10.30
2023-04-18T23:39:43.938Z,10.40
2023-04-18T23:42:12.162Z,10.20
2023-04-18T23:44:40.681Z,10.20
2023-04-18T23:47:09.131Z,10.10
2023-04-18T23:49:38.786Z,10.10
2023-04-18T23:52:07.240Z,10.20
2023-04-18T23:54:35.481Z,10.20
2023-04-18T23:57:03.699Z,10.10
2023-04-18T23:59:32.348Z,10.10
